Historyczne dane pomiarowe

Dodano dane terminowe – wersja testowa.

Dane z okresu 1951-2019

Wersja bazy: 1.34 [2019-03-16, lista zmian], aktualizacja planowana na 2019-04-15

Dane meteo z obszaru Polski uzyskane na podstawie danych udostępnionych przez Instytut Meteorologii i Gospodarki Wodnej – Państwowy Instytut Badawczy.

 

Wybierz Datę:    

       

TemperaturaWilgotnośćWiatrCiśnienieOpadyŚniegCzas trwania zjawisk
 Stacja t tx tn tng RH VA  wxwx mslp ppp RRR   cm mm wxwxwxwxwxwxwx
2020-01-31 6.2 10.2 1.7 0.3 83.0 7.9- 3.9--1004.6 969.0 1.1 0.9 0.0x- 0.9-------
2020-01-30 2.5 4.6 0.7 0.2 84.8 6.2- 3.0--1010.8 974.4 5.4 4.6 0.8x- 1.8-------
2020-01-29 1.7 4.0 -0.2 -1.2 78.6 5.4- 3.0--1003.3 967.1 0.4 0.4 0.0x- 0.0-------
2020-01-28 1.8 3.9 -1.0 -1.9 87.8 6.1- 3.1--1002.9 966.8 0.3 0.3 0.0x- 0.2-------
2020-01-27 0.3 6.7 -3.2 -3.9 88.1 5.5- 2.4--1016.3 979.5 0.0 0.0 0.0x- 2.8-------
2020-01-26 -2.5 -0.8 -4.1 -6.0 94.9 4.8- 2.0--1021.9 984.5 0.0 0.0 0.0x- 0.0-------
2020-01-25 -2.1 2.9 -5.4 -7.7 85.6 4.4- 1.6--1023.0 985.6 0.0 0.0 0.0x- 7.9-------
2020-01-24 -1.4 3.6 -3.4 -6.3 82.9 4.5- 2.9--1025.1 987.7 0.0 0.0 0.0x- 7.9-------
2020-01-23 1.2 4.0 0.3 -3.5 83.3 5.5- 1.8--1033.5 996.1 0.0 0.0 0.0x- 2.0-------
2020-01-22 -0.5 1.2 -2.6 -3.6 89.1 5.3- 3.4--1030.2 992.8 0.0 0.0 0.0x- 0.2-------
2020-01-21 0.5 4.8 -2.3 -4.9 80.5 5.1- 2.3--1040.61002.9 0.0 0.0 0.0x- 8.0-------
2020-01-20 0.9 2.4 -0.1 0.2 89.5 5.8- 1.8--1045.21007.4 0.0 0.0 0.0x- 0.0-------
2020-01-19 2.1 3.7 1.4 0.9 94.9 6.7- 2.5--1031.9 994.7 0.1 0.1 0.0x- 0.0-------
2020-01-18 2.2 3.2 0.2 -0.7 88.1 6.3- 2.3--1024.4 987.5 1.4 1.0 0.4x- 0.0-------
2020-01-17 0.4 2.7 -2.0 -7.0 92.5 5.8- 2.0--1027.6 990.4 0.0 0.0 0.0x- 5.1-------
2020-01-16 2.5 7.9 -0.4 -2.1 83.0 6.1- 2.3--1030.4 993.3 0.0 0.0 0.0x- 3.7-------
2020-01-15 2.8 7.0 -0.7 -1.3 67.9 5.0- 4.1--1022.9 986.2 0.0 0.0 0.0x- 7.8-------
2020-01-14 0.9 2.7 -0.7 -1.6 84.9 5.5- 3.6--1021.4 984.4 0.0 0.0 0.0x- 5.9-------
2020-01-13 2.7 4.2 1.6 0.9 82.8 6.1- 2.4--1023.6 986.8 0.0 0.0 0.0x- 0.0-------
2020-01-12 2.4 5.6 0.0 -0.9 82.0 5.9- 3.6--1026.3 989.3 0.0 0.0 0.0x- 6.4-------
2020-01-11 3.6 5.6 2.8 2.4 92.6 7.3- 2.9--1027.9 991.1 0.5 0.5 0.0x- 0.1-------
2020-01-10 4.4 6.1 2.9 1.6 77.3 6.5- 3.1--1018.5 982.1 0.0 0.0 0.0x- 0.8-------
2020-01-09 3.9 5.3 2.6 2.4 94.8 7.6- 2.6--1022.5 985.9 1.3 1.1 0.2x- 0.0-------
2020-01-08 2.3 5.3 0.1 0.1 88.6 6.3- 2.8--1027.8 990.8 1.8 0.0 1.8x- 3.8-------
2020-01-07 -0.1 2.7 -2.8 -4.3 80.6 4.9- 1.8--1026.9 989.6 0.0 0.0 0.0x- 6.2-------
2020-01-06 -1.4 0.7 -4.5 -7.6 90.0 5.0- 2.0--1031.5 993.9 0.0 0.0 0.0x- 0.2-------
2020-01-05 -0.3 1.7 -1.7 -4.9 84.4 5.1- 4.6--1029.2 991.8 0.0 0.0 0.0x- 3.8-------
2020-01-04 2.2 4.1 0.4 0.0 89.6 6.4- 3.9--1017.6 980.9 3.3 2.1 1.2x- 0.0-------
2020-01-03 2.2 5.6 -1.5 -5.0 67.4 4.8- 2.6--1022.7 985.8 0.9 0.0 0.9x- 6.9-------
2020-01-02 0.6 7.5 -3.2 -6.0 65.8 4.0- 2.1--1029.8 992.5 0.0 0.0 0.0x- 5.6-------
2020-01-01 1.4 4.2 -0.9 -2.3 84.3 5.7- 3.3--1032.4 995.1 0.0 0.0 0.0x- 0.7-------
2019-12-31 3.0 4.6 0.6 -1.3 70.0 5.4- 4.0--1024.8 988.0 0.0 0.0 0.0x- 0.4-------
2019-12-30 0.2 2.7 -3.5 -6.7 72.0 4.4- 2.8--1024.4 987.3 0.0 0.0 0.0x- 0.2-------
2019-12-29 -1.5 -0.7 -2.2 -2.2 80.5 4.4- 2.6--1003.3 966.7 0.0 0.0 0.0x- 0.0-------
2019-12-28 -1.1 0.9 -1.9 -1.9 86.4 4.9- 5.0--1003.2 966.7 0.0 0.0 0.0x- 0.0-------
2019-12-27 1.3 2.4 0.6 0.2 94.1 6.3- 3.8--1002.9 966.7 0.3 0.2 0.1x- 0.0-------
2019-12-26 2.4 3.1 1.9 1.7 95.1 6.9- 2.9--1002.8 966.7 0.6 0.2 0.4x- 0.0-------
2019-12-25 2.6 4.1 1.7 -0.6 97.1 7.2- 1.6--1002.8 966.7 3.2 2.5 0.7x- 0.0-------
2019-12-24 4.3 5.2 3.6 2.7 93.9 7.8- 4.3--1002.5 966.7 0.6 0.6 0.0x- 0.0-------
2019-12-23 4.7 5.1 4.4 4.0 97.1 8.3- 3.8--1002.5 966.7 14.4 7.5 6.9x- 0.0-------
2019-12-22 5.5 7.1 5.1 5.0 97.0 8.8- 1.5--1002.4 966.7 0.6 0.0 0.6x- 0.4-------
2019-12-21 8.6 12.3 7.2 4.9 78.5 8.7- 2.5--1002.0 966.7 12.7 0.2 12.5x- 0.5-------
2019-12-20 11.3 15.5 5.9 3.2 62.1 8.2- 3.9--1006.5 971.4 0.0 0.0 0.0x- 6.4-------
2019-12-19 6.2 10.8 2.1 -0.9 89.3 8.4- 1.8--1022.6 986.3 0.0 0.0 0.0x- 4.7-------
2019-12-18 10.4 15.2 8.5 5.2 74.9 9.3- 2.3--1017.7 982.1 0.0 0.0 0.0x- 4.3-------
2019-12-17 6.9 10.2 3.5 2.2 85.4 8.5- 2.9--1012.3 976.5 0.0 0.0 0.0x- 0.0-------
2019-12-16 6.0 9.7 3.9 0.1 85.5 7.9- 1.9--1014.8 978.8 0.0 0.0 0.0x- 0.6-------
2019-12-15 5.4 9.0 2.1 0.1 79.9 7.2- 3.1--1007.2 971.4 1.3 0.4 0.9x- 0.7-------
2019-12-14 4.0 7.0 1.9 0.6 78.0 6.3- 4.0-- 995.5 959.9 0.3 0.1 0.2x- 3.0-------
2019-12-13 2.3 4.2 0.5 0.0 87.8 6.3- 2.0--1006.3 970.1 0.0 0.0 0.0x- 0.0-------
2019-12-12 -0.6 3.4 -5.4 -6.2 83.3 5.0- 2.4--1022.8 985.6 0.0 0.0 0.0x- 0.0-------
2019-12-11 -2.7 1.4 -5.5 -7.2 87.0 4.3- 2.0--1023.1 985.6 0.0 0.0 0.0x- 7.3-------
2019-12-10 1.4 4.5 0.0 -1.6 86.8 5.9- 3.0--1018.4 981.6 0.2 0.2 0.0x- 0.7-------
2019-12-09 5.1 7.3 4.5 3.2 85.1 7.4- 2.5--1005.9 970.1 0.5 0.0 0.5x- 0.0-------
2019-12-08 5.9 8.2 2.7 1.2 77.9 7.1- 3.8--1010.5 974.6 0.6 0.0 0.6x- 2.9-------
2019-12-07 2.1 5.1 -2.2 -3.4 84.4 6.1- 3.3--1011.9 975.5 0.2 0.0 0.2x- 0.0-------
2019-12-06 -1.4 1.5 -2.7 -3.5 84.8 4.7- 3.9--1018.2 981.0 0.0 0.0 0.0x- 6.8-------
2019-12-05 -0.7 2.7 -2.1 -3.0 74.3 4.3- 3.9--1024.7 987.5 0.0 0.0 0.0x- 7.5-------
2019-12-04 -0.2 2.3 -3.5 -7.0 79.5 4.8- 2.6--1027.8 990.5 0.0 0.0 0.0x- 0.5-------
2019-12-03 -0.7 1.8 -2.5 -6.0 92.0 5.3- 2.5--1023.8 986.6 1.2 1.2 0.0x- 2.3-------
155.6 ms

 

Źródłem pochodzenia danych jest Instytut Meteorologii i Gospodarki Wodnej – Państwowy Instytut Badawczy. Dane Instytutu Meteorologii i Gospodarki Wodnej – Państwowego Instytutu Badawczego zostały przetworzone.

Dane źródłowe można odnaleźć na stronie https://dane.imgw.pl